Time;durP1;ratioP1;P1;durP2;ratioP2;P2;SDS_P1;SDS_P2;PMS_P1;PMS_P2;Temp;Humidity;BMP_temperature;BMP_pressure;BME280_temperature;BME280_humidity;BME280_pressure;Samples;Min_cycle;Max_cycle;Signal;HPM_P1;HPM_P2
2022/12/06 00:01:45;;;;;;;48.90;34.40;;;;;;;3.34;100.00;97798.89;107632;1269;58933;-70
2022/12/06 00:04:16;;;;;;;38.40;28.50;;;;;;;3.34;100.00;97800.42;107627;1267;58909;-70
2022/12/06 00:06:49;;;;;;;37.90;26.90;;;;;;;3.34;100.00;97799.24;107674;1267;69944;-70
2022/12/06 00:09:21;;;;;;;42.10;29.40;;;;;;;3.33;100.00;97797.53;107680;1267;69824;-70
2022/12/06 00:11:51;;;;;;;38.60;28.00;;;;;;;3.32;100.00;97797.38;107638;1267;69271;-70
2022/12/06 00:14:21;;;;;;;;;;;;;;;3.31;100.00;97801.41;107711;1266;58913;-70
2022/12/06 00:16:50;;;;;;;22.30;17.00;;;;;;;3.27;100.00;97799.11;107725;1267;58977;-70
2022/12/06 00:19:22;;;;;;;37.50;26.90;;;;;;;3.22;100.00;97805.55;107682;1269;70589;-71
2022/12/06 00:21:53;;;;;;;39.40;29.10;;;;;;;3.16;99.59;97806.63;107680;1267;69333;-70
2022/12/06 00:24:22;;;;;;;;;;;;;;;3.11;98.85;97809.56;107662;1263;69309;-71
2022/12/06 00:26:51;;;;;;;37.90;27.00;;;;;;;3.03;98.62;97807.94;107695;1267;58920;-71
2022/12/06 00:29:23;;;;;;;39.30;26.90;;;;;;;2.96;98.56;97807.50;107727;1267;58899;-71
2022/12/06 00:31:53;;;;;;;37.60;26.30;;;;;;;2.92;98.42;97808.34;107592;1267;69700;-70
2022/12/06 00:34:24;;;;;;;38.30;25.80;;;;;;;2.87;98.78;97806.99;107629;1267;69252;-69
2022/12/06 00:36:53;;;;;;;36.40;25.20;;;;;;;2.84;98.96;97801.76;107630;1265;68545;-69
2022/12/06 00:39:23;;;;;;;;;;;;;;;2.81;99.00;97797.53;107660;1267;59023;-69
2022/12/06 00:41:55;;;;;;;37.10;25.50;;;;;;;2.78;99.25;97794.71;107752;1263;58966;-69
2022/12/06 00:44:24;;;;;;;37.20;25.50;;;;;;;2.73;99.63;97788.20;107668;1267;70625;-69
2022/12/06 00:46:54;;;;;;;39.70;27.10;;;;;;;2.70;99.89;97780.05;107667;1265;68478;-69
2022/12/06 00:49:23;;;;;;;38.20;27.30;;;;;;;2.66;99.97;97770.02;107670;1267;68447;-68
2022/12/06 00:51:53;;;;;;;36.30;25.30;;;;;;;2.62;99.88;97767.73;107735;1267;58915;-69
2022/12/06 00:54:23;;;;;;;35.10;25.30;;;;;;;2.60;99.96;97768.54;107696;1267;58896;-69
2022/12/06 00:56:53;;;;;;;38.50;27.50;;;;;;;2.58;99.81;97766.86;107649;1263;69809;-68
2022/12/06 00:59:23;;;;;;;32.00;23.90;;;;;;;2.56;100.00;97766.08;107741;1267;69671;-69
2022/12/06 01:01:52;;;;;;;35.40;24.80;;;;;;;2.55;100.00;97772.28;107679;1267;69674;-69
2022/12/06 01:04:22;;;;;;;31.00;22.80;;;;;;;2.56;100.00;97770.55;107750;1267;58912;-70
2022/12/06 01:06:52;;;;;;;33.60;24.20;;;;;;;2.57;100.00;97765.71;107798;1263;58907;-69
2022/12/06 01:09:23;;;;;;;32.90;23.10;;;;;;;2.57;100.00;97766.22;107678;1267;71019;-69
2022/12/06 01:11:53;;;;;;;34.10;24.40;;;;;;;2.58;99.72;97770.84;107754;1267;68505;-69
2022/12/06 01:14:25;;;;;;;32.40;25.30;;;;;;;2.57;99.71;97771.02;107709;1268;69142;-69
2022/12/06 01:16:55;;;;;;;38.20;26.70;;;;;;;2.58;99.49;97765.31;107643;1267;59281;-68
2022/12/06 01:19:25;;;;;;;35.60;27.00;;;;;;;2.59;99.79;97758.40;107670;1267;58963;-67
2022/12/06 01:21:56;;;;;;;36.30;25.10;;;;;;;2.60;99.43;97756.66;107778;1267;69823;-69
2022/12/06 01:24:26;;;;;;;34.40;24.40;;;;;;;2.60;99.57;97752.86;107823;1270;68540;-69
2022/12/06 01:26:55;;;;;;;35.10;22.90;;;;;;;2.62;98.57;97748.67;107672;1263;68516;-69
2022/12/06 01:29:26;;;;;;;37.00;25.20;;;;;;;2.64;98.23;97746.19;107727;1267;58957;-69
2022/12/06 01:31:58;;;;;;;36.20;24.00;;;;;;;2.64;98.14;97747.55;107752;1267;58899;-68
2022/12/06 01:34:28;;;;;;;34.70;22.90;;;;;;;2.65;98.02;97745.81;107652;1267;70155;-68
2022/12/06 01:36:58;;;;;;;32.50;23.50;;;;;;;2.65;98.09;97745.48;107653;1267;69295;-68
2022/12/06 01:39:28;;;;;;;36.40;26.90;;;;;;;2.64;99.50;97750.14;107693;1264;69307;-69
2022/12/06 01:41:57;;;;;;;31.90;22.00;;;;;;;2.64;99.21;97751.34;107691;1267;58971;-68
2022/12/06 01:44:49;;;;;;;36.40;25.90;;;;;;;2.65;98.22;97748.06;107672;1263;58997;-68
2022/12/06 01:47:32;;;;;;;38.90;28.50;;;;;;;2.64;98.09;97737.41;107647;1267;69706;-69
2022/12/06 01:50:26;;;;;;;46.90;32.10;;;;;;;2.63;98.04;97736.41;107757;1267;69805;-69
2022/12/06 01:53:04;;;;;;;42.20;30.00;;;;;;;2.60;99.52;97744.25;107682;1269;69309;-68
2022/12/06 01:55:39;;;;;;;44.40;31.70;;;;;;;2.60;99.98;97744.24;107694;1267;58892;-69
2022/12/06 01:58:16;;;;;;;41.90;30.00;;;;;;;2.63;100.00;97738.48;107703;1267;58962;-69
2022/12/06 02:00:46;;;;;;;38.70;27.60;;;;;;;2.63;100.00;97735.89;107741;1267;71195;-69
2022/12/06 02:03:24;;;;;;;36.40;26.90;;;;;;;2.63;100.00;97733.66;107697;1267;69098;-69
2022/12/06 02:05:56;;;;;;;36.20;26.20;;;;;;;2.65;100.00;97737.73;108009;1267;68507;-69
2022/12/06 02:08:28;;;;;;;35.30;26.20;;;;;;;2.65;100.00;97741.52;107694;1267;58915;-69
2022/12/06 02:11:00;;;;;;;35.60;25.80;;;;;;;2.64;100.00;97745.85;107693;1267;58939;-69
2022/12/06 02:13:32;;;;;;;34.10;25.10;;;;;;;2.65;100.00;97739.59;107784;1267;70088;-69
2022/12/06 02:16:21;;;;;;;37.00;26.90;;;;;;;2.67;100.00;97735.23;107666;1267;68527;-68
2022/12/06 02:19:34;;;;;;;37.10;27.00;;;;;;;2.67;100.00;97733.32;107722;1267;69672;-69
2022/12/06 02:22:13;;;;;;;35.00;24.70;;;;;;;2.68;100.00;97727.63;107603;1267;58986;-68
2022/12/06 02:25:21;;;;;;;36.30;25.80;;;;;;;2.69;100.00;97731.88;107642;1262;58893;-68
2022/12/06 02:28:20;;;;;;;38.40;27.90;;;;;;;2.70;100.00;97733.94;107658;1265;69763;-69
2022/12/06 02:31:07;;;;;;;37.10;23.90;;;;;;;2.69;100.00;97737.75;107655;1267;68181;-69
2022/12/06 02:33:47;;;;;;;35.40;23.70;;;;;;;2.68;100.00;97732.77;107631;1267;68755;-69
2022/12/06 02:36:21;;;;;;;28.40;21.70;;;;;;;2.69;100.00;97729.84;107624;1268;58989;-68
2022/12/06 02:38:58;;;;;;;31.10;24.00;;;;;;;2.70;100.00;97725.50;107680;1267;58939;-69
2022/12/06 02:41:34;;;;;;;31.80;25.30;;;;;;;2.71;100.00;97726.14;107701;1267;69838;-68
2022/12/06 02:44:15;;;;;;;33.10;22.50;;;;;;;2.71;100.00;97725.61;107658;1267;68431;-68
2022/12/06 02:46:48;;;;;;;35.80;27.10;;;;;;;2.73;100.00;97730.90;107694;1263;68624;-68
2022/12/06 02:49:21;;;;;;;37.70;26.30;;;;;;;2.73;100.00;97727.44;107721;1268;58914;-68
2022/12/06 02:51:53;;;;;;;35.70;26.10;;;;;;;2.73;100.00;97721.42;107679;1267;58964;-67
2022/12/06 02:54:26;;;;;;;31.40;23.70;;;;;;;2.72;100.00;97716.79;107686;1267;69578;-68
2022/12/06 02:56:55;;;;;;;32.00;24.70;;;;;;;2.72;100.00;97711.80;107718;1267;70428;-68
2022/12/06 02:59:26;;;;;;;28.90;21.20;;;;;;;2.72;100.00;97711.80;107661;1267;69149;-68
2022/12/06 03:01:59;;;;;;;30.70;23.50;;;;;;;2.72;100.00;97710.08;107699;1262;58901;-69
2022/12/06 03:04:45;;;;;;;29.00;21.20;;;;;;;2.72;100.00;97711.82;107632;1267;58930;-68
2022/12/06 03:07:26;;;;;;;35.30;26.60;;;;;;;2.72;100.00;97706.29;107668;1267;70755;-69
2022/12/06 03:10:03;;;;;;;34.00;25.00;;;;;;;2.73;100.00;97701.11;107720;1267;69039;-69
2022/12/06 03:12:59;;;;;;;31.80;22.90;;;;;;;2.75;100.00;97696.38;107688;1267;69756;-68
2022/12/06 03:15:51;;;;;;;35.90;27.20;;;;;;;2.76;100.00;97693.95;107640;1267;58878;-68
2022/12/06 03:18:47;;;;;;;28.20;21.20;;;;;;;2.74;99.84;97691.95;107685;1267;58891;-68
2022/12/06 03:21:24;;;;;;;31.80;24.60;;;;;;;2.69;99.41;97688.16;107652;1267;70662;-69
2022/12/06 03:23:55;;;;;;;36.40;28.80;;;;;;;2.65;99.24;97693.66;107809;1263;69818;-68
2022/12/06 03:26:31;;;;;;;36.10;28.60;;;;;;;2.58;99.75;97689.41;107749;1267;68352;-68
2022/12/06 03:29:04;;;;;;;37.90;28.50;;;;;;;2.54;100.00;97689.40;107623;1267;59332;-68
2022/12/06 03:31:40;;;;;;;35.00;24.80;;;;;;;2.50;99.73;97686.30;107685;1269;58869;-67
2022/12/06 03:34:11;;;;;;;38.10;27.60;;;;;;;2.45;98.88;97680.42;107677;1267;70726;-68
2022/12/06 03:36:44;;;;;;;42.70;27.90;;;;;;;2.39;98.64;97681.87;107699;1267;69182;-68
2022/12/06 03:39:18;;;;;;;43.00;31.40;;;;;;;2.32;99.93;97680.39;107629;1267;69147;-68
2022/12/06 03:41:54;;;;;;;43.60;31.50;;;;;;;2.28;100.00;97681.56;107682;1267;58987;-68
2022/12/06 03:44:25;;;;;;;41.70;30.80;;;;;;;2.23;100.00;97678.10;107685;1267;58944;-68
2022/12/06 03:47:06;;;;;;;36.10;27.50;;;;;;;2.18;100.00;97679.67;107687;1262;70462;-68
2022/12/06 03:50:06;;;;;;;35.20;26.40;;;;;;;2.12;100.00;97681.08;107676;1262;68400;-68
2022/12/06 03:52:37;;;;;;;34.50;25.10;;;;;;;2.06;100.00;97672.19;107680;1267;68554;-67
2022/12/06 03:55:07;;;;;;;36.30;25.30;;;;;;;2.01;100.00;97670.81;107704;1267;59295;-68
2022/12/06 03:57:38;;;;;;;34.60;25.20;;;;;;;1.97;100.00;97669.39;107664;1270;58865;-68
2022/12/06 04:00:09;;;;;;;33.60;26.40;;;;;;;1.94;100.00;97667.96;107663;1267;70559;-69
2022/12/06 04:02:42;;;;;;;37.20;28.60;;;;;;;1.90;100.00;97669.13;107661;1267;69177;-69
2022/12/06 04:05:12;;;;;;;33.30;24.80;;;;;;;1.88;100.00;97667.30;107638;1267;68567;-69
2022/12/06 04:07:42;;;;;;;36.90;26.20;;;;;;;1.86;100.00;97667.89;107639;1267;58897;-69
2022/12/06 04:10:13;;;;;;;30.30;20.70;;;;;;;1.84;100.00;97663.30;107651;1264;58917;-69
2022/12/06 04:13:01;;;;;;;36.60;25.00;;;;;;;1.83;100.00;97660.95;107700;1267;70562;-69
2022/12/06 04:15:37;;;;;;;36.70;26.90;;;;;;;1.82;100.00;97660.64;107646;1267;68451;-69
2022/12/06 04:18:13;;;;;;;35.80;27.20;;;;;;;1.79;100.00;97662.09;107623;1267;69322;-69
2022/12/06 04:23:49;;;;;;;29.10;22.10;;;;;;;1.73;100.00;97663.17;107689;1267;58900;-68
2022/12/06 04:26:21;;;;;;;33.10;23.30;;;;;;;1.71;100.00;97656.37;107643;1267;71306;-67
2022/12/06 04:40:06;;;;;;;32.00;24.00;;;;;;;1.58;100.00;97637.55;107633;1267;71231;-68
2022/12/06 04:45:24;;;;;;;35.60;25.70;;;;;;;1.52;100.00;97630.52;107652;1263;69357;-68
2022/12/06 04:47:54;;;;;;;34.00;25.40;;;;;;;1.49;100.00;97632.86;107657;1267;59023;-69
2022/12/06 04:50:23;;;;;;;35.50;24.70;;;;;;;1.47;100.00;97629.48;107653;1267;58904;-68
2022/12/06 04:52:52;;;;;;;33.00;23.40;;;;;;;1.46;100.00;97631.41;107654;1267;70043;-69
2022/12/06 04:55:22;;;;;;;33.90;23.20;;;;;;;1.45;100.00;97630.59;107639;1264;69118;-68
2022/12/06 04:57:52;;;;;;;30.30;23.20;;;;;;;1.44;100.00;97635.44;107645;1267;69770;-69
2022/12/06 05:00:22;;;;;;;27.90;21.80;;;;;;;1.44;100.00;97632.37;107634;1267;58883;-68
2022/12/06 05:02:50;;;;;;;28.50;21.30;;;;;;;1.43;100.00;97625.51;107896;1267;58894;-68
2022/12/06 05:05:20;;;;;;;34.70;24.00;;;;;;;1.46;100.00;97626.44;107907;1263;71707;-67
2022/12/06 05:07:50;;;;;;;33.50;24.90;;;;;;;1.46;100.00;97626.41;107675;1267;68395;-68
2022/12/06 05:10:20;;;;;;;33.10;24.30;;;;;;;1.48;100.00;97627.75;107712;1267;69908;-68
2022/12/06 05:12:49;;;;;;;33.00;23.50;;;;;;;1.48;100.00;97622.59;107748;1267;58902;-68
2022/12/06 05:15:19;;;;;;;29.80;22.60;;;;;;;1.47;100.00;97621.91;107729;1267;58898;-68
2022/12/06 05:17:50;;;;;;;31.50;23.80;;;;;;;1.47;100.00;97621.05;107666;1267;69899;-68
2022/12/06 05:20:20;;;;;;;29.20;22.70;;;;;;;1.47;100.00;97615.91;107647;1267;69150;-68
2022/12/06 05:22:50;;;;;;;33.10;24.50;;;;;;;1.46;100.00;97612.16;107698;1267;69312;-69
2022/12/06 05:25:18;;;;;;;35.30;25.70;;;;;;;1.46;100.00;97608.23;107656;1267;58945;-69
2022/12/06 05:27:48;;;;;;;32.50;24.10;;;;;;;1.44;100.00;97608.30;107673;1267;58903;-68
2022/12/06 05:30:17;;;;;;;32.30;24.30;;;;;;;1.42;100.00;97607.86;107655;1267;69942;-68
2022/12/06 05:32:47;;;;;;;39.30;28.20;;;;;;;1.38;100.00;97604.18;107686;1267;69152;-68
2022/12/06 05:35:24;;;;;;;38.40;26.50;;;;;;;1.33;100.00;97609.01;107721;1267;69906;-68
2022/12/06 05:37:53;;;;;;;31.90;22.60;;;;;;;1.25;100.00;97613.73;107756;1263;58970;-68
2022/12/06 05:40:22;;;;;;;27.50;20.60;;;;;;;1.19;100.00;97611.88;107789;1263;58941;-68
2022/12/06 05:42:51;;;;;;;27.20;20.70;;;;;;;1.13;100.00;97608.80;107733;1267;70571;-68
2022/12/06 05:45:20;;;;;;;26.10;18.70;;;;;;;1.08;100.00;97606.92;107634;1267;68400;-68
2022/12/06 05:47:49;;;;;;;25.10;17.70;;;;;;;1.02;100.00;97601.92;107707;1267;68949;-67
2022/12/06 05:50:18;;;;;;;25.60;19.70;;;;;;;0.97;100.00;97598.83;107775;1267;58929;-68
2022/12/06 05:52:47;;;;;;;33.90;25.20;;;;;;;0.92;100.00;97593.30;107681;1268;58930;-68
2022/12/06 05:55:16;;;;;;;33.40;24.50;;;;;;;0.88;100.00;97589.48;107754;1267;69758;-68
2022/12/06 05:57:45;;;;;;;31.60;25.00;;;;;;;0.84;100.00;97586.55;107745;1263;69479;-69
2022/12/06 06:00:17;;;;;;;37.60;27.40;;;;;;;0.80;100.00;97586.66;107818;1263;68518;-68
2022/12/06 06:02:46;;;;;;;36.10;28.70;;;;;;;0.77;100.00;97590.16;107769;1263;58945;-68
2022/12/06 06:05:16;;;;;;;39.40;27.40;;;;;;;0.76;100.00;97592.63;107690;1267;58862;-68
2022/12/06 06:07:45;;;;;;;43.50;31.00;;;;;;;0.73;100.00;97590.81;107760;1263;69663;-69
2022/12/06 06:10:15;;;;;;;40.20;29.20;;;;;;;0.71;100.00;97601.00;107757;1263;69018;-68
2022/12/06 06:12:47;;;;;;;36.80;27.90;;;;;;;0.69;100.00;97595.40;107633;1267;70253;-68
2022/12/06 06:15:16;;;;;;;42.10;27.50;;;;;;;0.69;100.00;97598.14;107802;1267;58962;-68
2022/12/06 06:17:45;;;;;;;47.00;33.30;;;;;;;0.68;100.00;97596.98;107761;1267;58909;-68
2022/12/06 06:20:14;;;;;;;45.00;30.10;;;;;;;0.68;100.00;97601.27;107780;1267;71329;-68
2022/12/06 06:22:43;;;;;;;51.80;33.60;;;;;;;0.68;100.00;97606.23;107724;1263;69668;-68
2022/12/06 06:25:12;;;;;;;65.20;45.90;;;;;;;0.70;100.00;97605.00;107740;1267;68512;-68
2022/12/06 06:27:41;;;;;;;34.30;24.00;;;;;;;0.70;100.00;97604.30;107726;1267;58858;-68
2022/12/06 06:30:12;;;;;;;32.80;23.40;;;;;;;0.71;100.00;97606.30;107827;1267;58892;-69
2022/12/06 06:32:41;;;;;;;33.20;21.20;;;;;;;0.69;100.00;97606.55;107688;1267;70615;-68
2022/12/06 06:35:10;;;;;;;28.80;19.60;;;;;;;0.66;100.00;97604.09;107789;1267;68305;-69
2022/12/06 06:37:39;;;;;;;28.50;19.80;;;;;;;0.66;100.00;97605.80;107708;1267;68896;-69
2022/12/06 06:40:10;;;;;;;20.50;14.90;;;;;;;0.67;100.00;97598.89;107736;1263;58982;-69
2022/12/06 06:42:39;;;;;;;22.90;18.20;;;;;;;0.69;100.00;97602.27;107694;1267;58963;-68
2022/12/06 06:45:08;;;;;;;26.40;19.00;;;;;;;0.72;100.00;97603.70;107696;1267;70084;-69
2022/12/06 06:47:37;;;;;;;36.70;24.90;;;;;;;0.77;100.00;97606.99;107715;1267;68607;-67
2022/12/06 06:50:07;;;;;;;31.00;21.90;;;;;;;0.85;100.00;97606.05;107714;1267;69268;-68
2022/12/06 06:52:36;;;;;;;31.00;22.40;;;;;;;0.95;100.00;97604.55;107684;1267;58897;-68
2022/12/06 06:55:06;;;;;;;44.30;31.90;;;;;;;1.08;100.00;97603.64;107692;1265;58903;-69
2022/12/06 06:57:35;;;;;;;43.00;30.70;;;;;;;1.23;100.00;97599.37;107667;1267;71218;-68
2022/12/06 07:00:05;;;;;;;48.10;32.30;;;;;;;1.44;100.00;97597.46;107691;1267;69882;-68
2022/12/06 07:02:34;;;;;;;;;;;;;;;1.84;100.00;97594.92;107670;1270;69219;-66
2022/12/06 07:05:04;;;;;;;48.10;32.80;;;;;;;2.30;100.00;97593.95;107662;1266;58949;-67
2022/12/06 07:07:33;;;;;;;36.10;26.30;;;;;;;2.75;100.00;97594.68;107661;1262;59296;-68
2022/12/06 07:10:03;;;;;;;38.20;29.50;;;;;;;3.12;99.98;97594.05;107658;1263;70584;-68
2022/12/06 07:12:32;;;;;;;43.30;33.10;;;;;;;3.40;97.35;97584.34;107649;1263;68660;-68
2022/12/06 07:15:01;;;;;;;35.40;28.50;;;;;;;3.64;95.97;97578.83;107637;1262;67478;-68
2022/12/06 07:17:30;;;;;;;36.80;29.20;;;;;;;3.87;95.64;97576.11;107657;1267;58942;-68
2022/12/06 07:19:59;;;;;;;29.90;24.50;;;;;;;4.15;93.31;97569.52;107643;1267;58897;-68
2022/12/06 07:22:29;;;;;;;28.60;22.90;;;;;;;4.79;96.51;97565.42;107654;1267;70561;-68
2022/12/06 07:24:58;;;;;;;29.60;24.30;;;;;;;5.58;92.75;97563.44;107674;1262;68477;-69
2022/12/06 07:27:27;;;;;;;29.70;23.70;;;;;;;6.23;81.86;97564.79;107603;1267;69802;-68
2022/12/06 07:29:56;;;;;;;27.60;23.80;;;;;;;6.58;78.18;97565.90;107758;1267;58927;-68
2022/12/06 07:32:25;;;;;;;39.90;34.60;;;;;;;6.86;78.31;97567.65;107652;1263;58913;-68
2022/12/06 07:34:55;;;;;;;34.70;30.10;;;;;;;7.13;82.29;97568.74;107744;1267;71057;-68
2022/12/06 07:37:27;;;;;;;33.10;28.80;;;;;;;7.40;78.49;97559.58;107630;1267;69847;-68
2022/12/06 07:39:56;;;;;;;33.80;29.80;;;;;;;7.74;77.69;97555.83;107645;1267;69144;-67
2022/12/06 07:45:22;;;;;;;21.20;17.30;;;;;;;7.45;72.15;97542.11;107547;1267;58920;-68
2022/12/06 07:47:51;;;;;;;19.50;15.70;;;;;;;7.32;70.52;97536.81;107742;1267;70467;-67
2022/12/06 07:50:22;;;;;;;22.60;20.10;;;;;;;7.38;73.98;97542.17;107758;1262;69364;-68
2022/12/06 07:52:50;;;;;;;22.90;20.40;;;;;;;7.32;75.17;97540.23;107720;1267;69171;-68
2022/12/06 07:55:19;;;;;;;26.80;22.80;;;;;;;7.31;79.07;97539.48;107713;1265;58965;-68
2022/12/06 07:57:49;;;;;;;26.50;23.00;;;;;;;7.05;76.80;97543.00;107734;1266;58956;-68
2022/12/06 08:00:18;;;;;;;24.80;21.00;;;;;;;6.83;75.17;97546.68;107668;1267;70604;-70
2022/12/06 08:02:47;;;;;;;22.20;19.80;;;;;;;6.59;75.51;97544.89;107942;1265;69868;-70
2022/12/06 08:05:17;;;;;;;22.20;18.30;;;;;;;6.37;76.42;97542.11;107725;1265;69417;-69
2022/12/06 08:07:46;;;;;;;17.40;15.50;;;;;;;6.29;77.61;97539.94;107732;1263;59012;-69
2022/12/06 08:10:15;;;;;;;19.90;16.10;;;;;;;6.31;78.23;97536.54;107795;1267;58994;-69
2022/12/06 08:12:44;;;;;;;13.30;11.40;;;;;;;6.23;77.10;97536.30;107674;1263;70550;-69
2022/12/06 08:15:14;;;;;;;12.70;10.40;;;;;;;6.21;77.51;97535.70;107713;1267;68431;-69
2022/12/06 08:17:43;;;;;;;12.40;9.00;;;;;;;6.20;76.92;97532.42;107761;1267;69215;-71
2022/12/06 08:20:12;;;;;;;7.90;6.70;;;;;;;6.18;77.06;97528.74;107666;1265;58934;-70
2022/12/06 08:22:41;;;;;;;8.80;7.20;;;;;;;6.19;77.49;97521.09;107677;1259;58970;-69
2022/12/06 08:25:10;;;;;;;12.90;9.20;;;;;;;6.16;76.50;97523.52;107722;1267;70509;-69
2022/12/06 08:27:39;;;;;;;8.20;6.20;;;;;;;6.20;77.14;97521.39;107680;1262;69339;-70
2022/12/06 08:30:08;;;;;;;8.30;6.90;;;;;;;6.25;76.28;97518.15;107657;1263;68592;-69
2022/12/06 08:32:36;;;;;;;6.60;5.80;;;;;;;6.26;74.58;97515.16;107675;1263;58913;-69
2022/12/06 08:35:06;;;;;;;7.10;6.20;;;;;;;6.23;74.41;97510.48;107769;1267;58986;-69
2022/12/06 08:37:34;;;;;;;8.40;6.90;;;;;;;6.22;74.18;97500.85;107792;1267;71088;-69
2022/12/06 08:40:04;;;;;;;8.60;6.80;;;;;;;6.25;75.09;97499.80;107796;1262;68500;-70
2022/12/06 08:42:33;;;;;;;10.70;8.50;;;;;;;6.32;76.20;97500.11;107659;1267;69306;-69
2022/12/06 08:45:02;;;;;;;12.10;8.60;;;;;;;6.36;75.00;97496.79;107715;1267;58972;-70
2022/12/06 08:47:31;;;;;;;12.00;9.60;;;;;;;6.36;75.01;97490.19;107777;1267;58914;-70
2022/12/06 08:50:00;;;;;;;13.10;9.80;;;;;;;6.39;75.52;97490.21;107616;1267;70416;-70
2022/12/06 08:52:29;;;;;;;10.10;7.10;;;;;;;6.44;76.34;97483.91;107726;1263;69238;-70
2022/12/06 08:54:58;;;;;;;11.70;9.30;;;;;;;6.47;75.97;97483.88;107637;1267;69619;-71
2022/12/06 08:57:28;;;;;;;10.00;7.70;;;;;;;6.49;75.72;97491.25;107633;1267;58976;-72
2022/12/06 08:59:56;;;;;;;9.30;7.30;;;;;;;6.49;74.61;97487.94;107652;1266;58905;-72
2022/12/06 09:02:26;;;;;;;7.00;5.00;;;;;;;6.56;75.60;97483.24;107718;1269;71073;-71
2022/12/06 09:04:54;;;;;;;6.90;4.50;;;;;;;6.60;75.66;97480.38;107673;1269;69904;-70
2022/12/06 09:07:25;;;;;;;5.50;4.10;;;;;;;6.62;75.65;97476.32;107742;1261;69143;-69
2022/12/06 09:09:54;;;;;;;5.30;4.00;;;;;;;6.59;74.70;97466.92;107736;1263;58888;-71
2022/12/06 09:12:23;;;;;;;5.80;3.50;;;;;;;6.54;73.92;97460.97;107641;1263;58852;-69
2022/12/06 09:15:02;;;;;;;5.50;4.00;;;;;;;6.53;73.95;97457.05;107670;1267;69735;-70
2022/12/06 09:17:31;;;;;;;5.10;3.90;;;;;;;6.57;73.57;97457.70;107688;1267;69935;-70
2022/12/06 09:20:00;;;;;;;5.70;4.00;;;;;;;6.63;72.44;97452.35;107609;1263;68269;-71
2022/12/06 09:22:33;;;;;;;9.30;5.40;;;;;;;6.70;73.67;97450.59;107610;1267;58949;-71
2022/12/06 09:25:03;;;;;;;6.80;5.00;;;;;;;6.75;73.59;97447.16;107651;1267;59032;-70
2022/12/06 09:27:31;;;;;;;7.00;4.90;;;;;;;6.84;74.60;97446.17;107693;1267;70693;-70
2022/12/06 09:30:00;;;;;;;7.90;5.40;;;;;;;6.92;73.97;97442.08;107634;1263;69550;-70
2022/12/06 09:32:30;;;;;;;7.10;5.70;;;;;;;6.92;71.76;97431.33;107654;1266;69649;-70
2022/12/06 09:34:59;;;;;;;7.30;6.10;;;;;;;6.95;72.24;97432.14;107629;1265;58972;-70
2022/12/06 09:37:28;;;;;;;8.00;5.70;;;;;;;6.95;71.93;97428.00;107826;1267;58883;-70
2022/12/06 09:40:09;;;;;;;7.30;5.10;;;;;;;6.97;72.96;97425.48;107863;1267;69613;-70
2022/12/06 09:42:59;;;;;;;5.60;4.30;;;;;;;7.01;73.01;97421.60;107903;1263;68456;-70
2022/12/06 09:45:39;;;;;;;5.60;4.30;;;;;;;7.03;71.60;97416.99;107840;1265;69959;-70
2022/12/06 09:48:35;;;;;;;5.60;4.70;;;;;;;6.98;69.63;97411.02;107831;1267;58948;-70
2022/12/06 09:51:16;;;;;;;7.60;4.60;;;;;;;6.97;70.07;97407.64;107763;1267;58889;-69
2022/12/06 09:54:07;;;;;;;5.30;3.60;;;;;;;6.97;69.33;97403.85;107761;1267;71213;-70
2022/12/06 09:56:46;;;;;;;5.10;3.70;;;;;;;6.97;71.19;97401.38;107818;1256;69784;-70
2022/12/06 09:59:28;;;;;;;5.10;3.90;;;;;;;6.96;70.97;97394.16;107763;1267;69928;-70
2022/12/06 10:02:24;;;;;;;4.60;3.70;;;;;;;6.96;69.32;97392.13;107758;1267;58960;-71
2022/12/06 10:05:18;;;;;;;4.70;3.50;;;;;;;6.93;69.92;97390.38;107659;1263;58992;-70
2022/12/06 10:08:02;;;;;;;4.30;3.40;;;;;;;6.88;70.48;97388.58;107655;1267;70435;-69
2022/12/06 10:11:02;;;;;;;5.20;3.20;;;;;;;6.83;69.72;97384.70;107649;1263;68507;-69
2022/12/06 10:14:13;;;;;;;5.10;3.50;;;;;;;6.71;69.54;97381.59;107630;1265;69245;-69
2022/12/06 10:17:09;;;;;;;5.50;4.20;;;;;;;6.49;69.49;97374.86;107605;1267;58975;-69
2022/12/06 10:20:08;;;;;;;5.20;4.00;;;;;;;6.38;69.48;97367.86;107734;1267;58916;-70
2022/12/06 10:22:58;;;;;;;4.80;3.00;;;;;;;6.37;69.54;97357.55;107661;1265;70541;-68
2022/12/06 10:25:40;;;;;;;4.10;3.40;;;;;;;6.45;69.54;97353.11;107371;1267;68728;-69
2022/12/06 10:28:13;;;;;;;5.30;3.50;;;;;;;6.53;70.49;97358.05;107656;1265;69877;-69
2022/12/06 10:30:54;;;;;;;5.90;4.00;;;;;;;6.51;70.65;97353.13;107654;1262;59326;-69
2022/12/06 10:33:52;;;;;;;6.40;3.40;;;;;;;6.47;70.08;97352.68;107719;1266;58929;-69
2022/12/06 10:36:51;;;;;;;5.40;4.10;;;;;;;6.48;69.57;97348.95;107690;1267;71044;-69
2022/12/06 10:39:37;;;;;;;4.50;3.80;;;;;;;6.46;70.31;97342.88;107779;1267;69814;-70
2022/12/06 10:42:23;;;;;;;5.40;3.80;;;;;;;6.50;70.29;97337.63;107792;1263;68444;-70
2022/12/06 10:48:18;;;;;;;6.00;4.30;;;;;;;6.38;70.29;97340.16;107744;1267;58906;-71
2022/12/06 10:50:58;;;;;;;6.70;5.10;;;;;;;6.43;70.56;97334.58;107764;1263;71243;-71
2022/12/06 10:53:34;;;;;;;6.10;4.00;;;;;;;6.46;71.39;97327.81;107714;1267;69193;-72
2022/12/06 10:56:12;;;;;;;5.10;4.20;;;;;;;6.53;71.14;97322.03;107733;1265;69508;-71
2022/12/06 10:58:48;;;;;;;6.70;4.40;;;;;;;6.62;71.06;97315.11;107761;1267;58915;-72
2022/12/06 11:01:22;;;;;;;6.30;4.50;;;;;;;6.69;70.61;97310.73;107996;1267;59371;-71
2022/12/06 11:04:18;;;;;;;7.00;5.20;;;;;;;6.70;70.28;97309.27;107683;1262;70083;-72
2022/12/06 11:06:50;;;;;;;6.70;4.60;;;;;;;6.66;69.62;97307.79;107707;1263;69903;-71
2022/12/06 11:09:42;;;;;;;9.80;8.50;;;;;;;6.66;70.10;97299.98;107763;1267;69161;-70
2022/12/06 11:12:33;;;;;;;6.70;5.20;;;;;;;6.64;69.94;97297.30;107671;1267;58969;-71
2022/12/06 11:15:25;;;;;;;7.10;5.30;;;;;;;6.63;69.91;97294.73;107664;1269;58901;-71
2022/12/06 11:18:09;;;;;;;7.00;4.90;;;;;;;6.64;70.53;97288.63;107613;1267;70536;-73
2022/12/06 11:20:45;;;;;;;7.70;4.70;;;;;;;6.66;70.53;97285.09;107626;1263;69023;-71
2022/12/06 11:23:20;;;;;;;7.80;4.90;;;;;;;6.64;70.04;97279.34;107669;1263;69254;-72
2022/12/06 11:26:10;;;;;;;6.90;5.00;;;;;;;6.62;69.98;97278.38;107639;1267;58895;-70
2022/12/06 11:29:03;;;;;;;6.60;4.70;;;;;;;6.67;70.46;97275.53;107782;1265;58891;-72
2022/12/06 11:31:40;;;;;;;5.70;3.80;;;;;;;6.70;70.08;97273.24;107710;1263;70673;-71
2022/12/06 11:34:42;;;;;;;6.50;4.50;;;;;;;6.67;69.76;97272.05;107639;1263;69967;-72
2022/12/06 11:37:16;;;;;;;6.60;4.20;;;;;;;6.66;69.81;97268.13;107497;1262;69200;-71
2022/12/06 11:39:48;;;;;;;6.30;3.90;;;;;;;6.66;69.77;97261.02;107630;1266;58971;-71
2022/12/06 11:42:26;;;;;;;10.10;6.50;;;;;;;6.65;69.81;97257.44;107654;1267;58953;-71
2022/12/06 11:45:11;;;;;;;8.10;4.60;;;;;;;6.60;69.80;97258.55;107643;1264;71342;-71
2022/12/06 11:47:41;;;;;;;8.10;6.40;;;;;;;6.55;70.15;97260.95;107793;1267;69741;-71
2022/12/06 11:50:17;;;;;;;5.90;4.90;;;;;;;6.49;69.99;97261.63;107689;1263;69892;-72
2022/12/06 11:53:21;;;;;;;6.80;5.40;;;;;;;6.44;70.14;97264.56;107652;1267;58920;-71
2022/12/06 11:55:54;;;;;;;6.80;4.50;;;;;;;6.40;70.14;97262.54;107548;1267;59009;-71
2022/12/06 11:58:25;;;;;;;7.00;4.90;;;;;;;6.35;70.29;97254.83;107716;1267;68948;-71
2022/12/06 12:01:01;;;;;;;6.90;5.30;;;;;;;6.36;70.63;97247.34;107754;1263;69095;-71
2022/12/06 12:03:33;;;;;;;7.40;5.90;;;;;;;6.30;71.03;97245.11;107677;1259;69915;-71
2022/12/06 12:06:22;;;;;;;6.90;5.00;;;;;;;6.27;71.38;97235.40;107713;1263;58984;-71
2022/12/06 12:09:05;;;;;;;7.30;4.80;;;;;;;6.24;71.53;97226.60;107745;1267;58958;-71
2022/12/06 12:11:36;;;;;;;9.90;8.90;;;;;;;6.25;71.90;97225.33;107686;1265;70570;-71
2022/12/06 12:14:29;;;;;;;8.30;5.60;;;;;;;6.29;72.11;97225.95;107697;1267;69845;-71
2022/12/06 12:17:01;;;;;;;10.80;6.10;;;;;;;6.30;71.90;97222.77;107641;1267;69342;-72